sensor_id;sensor_type;location;lat;lon;timestamp;P1;durP1;ratioP1;P2;durP2;ratioP2
53875;SDS011;39789;53.216;5.624;2023-07-22T00:01:59;3.13;;;1.80;;
53875;SDS011;39789;53.216;5.624;2023-07-22T00:04:25;2.88;;;1.85;;
53875;SDS011;39789;53.216;5.624;2023-07-22T00:06:52;5.53;;;1.70;;
53875;SDS011;39789;53.216;5.624;2023-07-22T00:09:17;4.35;;;2.85;;
53875;SDS011;39789;53.216;5.624;2023-07-22T00:11:43;6.88;;;2.38;;
53875;SDS011;39789;53.216;5.624;2023-07-22T00:14:08;6.03;;;1.80;;
53875;SDS011;39789;53.216;5.624;2023-07-22T00:16:34;5.05;;;1.90;;
53875;SDS011;39789;53.216;5.624;2023-07-22T00:19:00;4.40;;;1.88;;
53875;SDS011;39789;53.216;5.624;2023-07-22T00:21:25;6.53;;;1.95;;
53875;SDS011;39789;53.216;5.624;2023-07-22T00:23:51;4.00;;;1.83;;
53875;SDS011;39789;53.216;5.624;2023-07-22T00:26:17;3.35;;;1.83;;
53875;SDS011;39789;53.216;5.624;2023-07-22T00:28:42;2.70;;;1.58;;
53875;SDS011;39789;53.216;5.624;2023-07-22T00:31:08;5.35;;;1.70;;
53875;SDS011;39789;53.216;5.624;2023-07-22T00:33:34;2.05;;;1.38;;
53875;SDS011;39789;53.216;5.624;2023-07-22T00:36:00;3.33;;;2.08;;
53875;SDS011;39789;53.216;5.624;2023-07-22T00:38:25;5.30;;;2.10;;
53875;SDS011;39789;53.216;5.624;2023-07-22T00:40:52;7.88;;;2.13;;
53875;SDS011;39789;53.216;5.624;2023-07-22T00:43:18;4.20;;;2.00;;
53875;SDS011;39789;53.216;5.624;2023-07-22T00:45:44;3.90;;;1.67;;
53875;SDS011;39789;53.216;5.624;2023-07-22T00:48:09;5.88;;;2.38;;
53875;SDS011;39789;53.216;5.624;2023-07-22T00:50:38;2.42;;;1.60;;
53875;SDS011;39789;53.216;5.624;2023-07-22T00:53:04;3.90;;;2.00;;
53875;SDS011;39789;53.216;5.624;2023-07-22T00:55:29;4.80;;;1.58;;
53875;SDS011;39789;53.216;5.624;2023-07-22T00:57:58;4.65;;;2.20;;
53875;SDS011;39789;53.216;5.624;2023-07-22T01:00:24;4.43;;;1.50;;
53875;SDS011;39789;53.216;5.624;2023-07-22T01:02:49;5.57;;;2.00;;
53875;SDS011;39789;53.216;5.624;2023-07-22T01:05:15;2.35;;;1.48;;
53875;SDS011;39789;53.216;5.624;2023-07-22T01:07:41;2.88;;;1.90;;
53875;SDS011;39789;53.216;5.624;2023-07-22T01:10:07;2.75;;;1.63;;
53875;SDS011;39789;53.216;5.624;2023-07-22T01:12:36;4.68;;;1.70;;
53875;SDS011;39789;53.216;5.624;2023-07-22T01:15:02;3.90;;;1.88;;
53875;SDS011;39789;53.216;5.624;2023-07-22T01:17:32;4.30;;;2.40;;
53875;SDS011;39789;53.216;5.624;2023-07-22T01:19:59;4.38;;;1.70;;
53875;SDS011;39789;53.216;5.624;2023-07-22T01:22:24;3.85;;;1.90;;
53875;SDS011;39789;53.216;5.624;2023-07-22T01:24:50;4.70;;;2.40;;
53875;SDS011;39789;53.216;5.624;2023-07-22T01:27:17;3.95;;;1.58;;
53875;SDS011;39789;53.216;5.624;2023-07-22T01:29:43;4.72;;;2.10;;
53875;SDS011;39789;53.216;5.624;2023-07-22T01:32:24;3.38;;;2.10;;
53875;SDS011;39789;53.216;5.624;2023-07-22T01:34:50;4.47;;;1.92;;
53875;SDS011;39789;53.216;5.624;2023-07-22T01:37:15;3.15;;;1.58;;
53875;SDS011;39789;53.216;5.624;2023-07-22T01:39:41;4.43;;;2.30;;
53875;SDS011;39789;53.216;5.624;2023-07-22T01:42:06;6.60;;;2.08;;
53875;SDS011;39789;53.216;5.624;2023-07-22T01:44:32;4.70;;;1.60;;
53875;SDS011;39789;53.216;5.624;2023-07-22T01:47:01;3.28;;;1.80;;
53875;SDS011;39789;53.216;5.624;2023-07-22T01:49:27;5.22;;;2.20;;
53875;SDS011;39789;53.216;5.624;2023-07-22T01:51:53;2.92;;;1.73;;
53875;SDS011;39789;53.216;5.624;2023-07-22T01:54:35;4.80;;;1.80;;
53875;SDS011;39789;53.216;5.624;2023-07-22T01:57:01;8.10;;;1.70;;
53875;SDS011;39789;53.216;5.624;2023-07-22T01:59:26;4.03;;;1.70;;
53875;SDS011;39789;53.216;5.624;2023-07-22T02:01:52;5.18;;;2.58;;
53875;SDS011;39789;53.216;5.624;2023-07-22T02:04:18;3.67;;;1.60;;
53875;SDS011;39789;53.216;5.624;2023-07-22T02:09:15;4.10;;;2.13;;
53875;SDS011;39789;53.216;5.624;2023-07-22T02:11:41;6.47;;;2.70;;
53875;SDS011;39789;53.216;5.624;2023-07-22T02:14:07;3.20;;;1.80;;
53875;SDS011;39789;53.216;5.624;2023-07-22T02:16:35;3.35;;;1.42;;
53875;SDS011;39789;53.216;5.624;2023-07-22T02:21:40;5.15;;;2.60;;
53875;SDS011;39789;53.216;5.624;2023-07-22T02:24:10;3.75;;;2.10;;
53875;SDS011;39789;53.216;5.624;2023-07-22T02:26:38;5.18;;;2.33;;
53875;SDS011;39789;53.216;5.624;2023-07-22T02:29:16;3.83;;;2.20;;
53875;SDS011;39789;53.216;5.624;2023-07-22T02:34:45;3.63;;;1.98;;
53875;SDS011;39789;53.216;5.624;2023-07-22T02:37:33;5.80;;;2.35;;
53875;SDS011;39789;53.216;5.624;2023-07-22T02:40:02;3.42;;;2.35;;
53875;SDS011;39789;53.216;5.624;2023-07-22T02:43:04;3.88;;;2.30;;
53875;SDS011;39789;53.216;5.624;2023-07-22T03:03:54;9.07;;;3.33;;
53875;SDS011;39789;53.216;5.624;2023-07-22T03:08:55;7.82;;;3.92;;
53875;SDS011;39789;53.216;5.624;2023-07-22T03:11:22;4.28;;;2.95;;
53875;SDS011;39789;53.216;5.624;2023-07-22T03:13:50;6.05;;;3.42;;
53875;SDS011;39789;53.216;5.624;2023-07-22T03:16:16;5.18;;;3.45;;
53875;SDS011;39789;53.216;5.624;2023-07-22T03:18:43;6.13;;;3.58;;
53875;SDS011;39789;53.216;5.624;2023-07-22T03:21:10;5.30;;;4.03;;
53875;SDS011;39789;53.216;5.624;2023-07-22T03:23:36;6.80;;;3.60;;
53875;SDS011;39789;53.216;5.624;2023-07-22T03:26:05;6.72;;;3.50;;
53875;SDS011;39789;53.216;5.624;2023-07-22T03:28:44;6.70;;;3.13;;
53875;SDS011;39789;53.216;5.624;2023-07-22T03:31:31;5.00;;;3.35;;
53875;SDS011;39789;53.216;5.624;2023-07-22T03:34:16;6.30;;;3.33;;
53875;SDS011;39789;53.216;5.624;2023-07-22T03:36:50;5.30;;;3.60;;
53875;SDS011;39789;53.216;5.624;2023-07-22T03:39:16;6.10;;;3.90;;
53875;SDS011;39789;53.216;5.624;2023-07-22T03:41:43;8.80;;;4.60;;
53875;SDS011;39789;53.216;5.624;2023-07-22T03:44:08;9.05;;;4.60;;
53875;SDS011;39789;53.216;5.624;2023-07-22T03:46:34;10.85;;;5.03;;
53875;SDS011;39789;53.216;5.624;2023-07-22T03:48:59;7.38;;;4.68;;
53875;SDS011;39789;53.216;5.624;2023-07-22T03:51:27;10.50;;;4.63;;
53875;SDS011;39789;53.216;5.624;2023-07-22T03:53:53;9.35;;;5.47;;
53875;SDS011;39789;53.216;5.624;2023-07-22T03:56:18;8.15;;;5.50;;
53875;SDS011;39789;53.216;5.624;2023-07-22T03:58:44;9.90;;;5.75;;
53875;SDS011;39789;53.216;5.624;2023-07-22T04:01:10;13.35;;;6.88;;
53875;SDS011;39789;53.216;5.624;2023-07-22T04:03:36;10.32;;;5.50;;
53875;SDS011;39789;53.216;5.624;2023-07-22T04:06:02;9.57;;;5.78;;
53875;SDS011;39789;53.216;5.624;2023-07-22T04:08:27;10.15;;;6.05;;
53875;SDS011;39789;53.216;5.624;2023-07-22T04:10:53;10.60;;;5.78;;
53875;SDS011;39789;53.216;5.624;2023-07-22T04:13:19;12.50;;;6.15;;
53875;SDS011;39789;53.216;5.624;2023-07-22T04:15:45;12.63;;;6.88;;
53875;SDS011;39789;53.216;5.624;2023-07-22T04:18:12;10.40;;;6.55;;
53875;SDS011;39789;53.216;5.624;2023-07-22T04:20:37;11.35;;;6.63;;
53875;SDS011;39789;53.216;5.624;2023-07-22T04:23:03;12.90;;;7.40;;
53875;SDS011;39789;53.216;5.624;2023-07-22T04:25:28;9.65;;;6.90;;
53875;SDS011;39789;53.216;5.624;2023-07-22T04:27:54;11.48;;;7.78;;
53875;SDS011;39789;53.216;5.624;2023-07-22T04:30:23;11.50;;;7.63;;
53875;SDS011;39789;53.216;5.624;2023-07-22T04:32:49;12.38;;;7.47;;
53875;SDS011;39789;53.216;5.624;2023-07-22T04:35:16;13.15;;;8.93;;
53875;SDS011;39789;53.216;5.624;2023-07-22T04:37:45;12.70;;;8.27;;
53875;SDS011;39789;53.216;5.624;2023-07-22T04:40:11;13.85;;;8.43;;
53875;SDS011;39789;53.216;5.624;2023-07-22T04:42:39;13.27;;;7.60;;
53875;SDS011;39789;53.216;5.624;2023-07-22T04:45:06;14.32;;;7.53;;
53875;SDS011;39789;53.216;5.624;2023-07-22T04:47:34;11.43;;;7.85;;
53875;SDS011;39789;53.216;5.624;2023-07-22T04:50:00;12.32;;;8.52;;
53875;SDS011;39789;53.216;5.624;2023-07-22T04:52:26;15.35;;;8.57;;
53875;SDS011;39789;53.216;5.624;2023-07-22T04:54:51;12.75;;;8.18;;
53875;SDS011;39789;53.216;5.624;2023-07-22T04:57:18;13.38;;;7.78;;
53875;SDS011;39789;53.216;5.624;2023-07-22T04:59:45;11.75;;;7.85;;
53875;SDS011;39789;53.216;5.624;2023-07-22T05:02:13;14.93;;;8.45;;
53875;SDS011;39789;53.216;5.624;2023-07-22T05:04:38;14.82;;;8.32;;
53875;SDS011;39789;53.216;5.624;2023-07-22T05:07:05;14.68;;;8.95;;
53875;SDS011;39789;53.216;5.624;2023-07-22T05:09:31;11.20;;;8.65;;
53875;SDS011;39789;53.216;5.624;2023-07-22T05:11:58;12.07;;;7.32;;
53875;SDS011;39789;53.216;5.624;2023-07-22T05:14:23;11.38;;;7.43;;
53875;SDS011;39789;53.216;5.624;2023-07-22T05:16:49;10.77;;;7.80;;
53875;SDS011;39789;53.216;5.624;2023-07-22T05:19:15;11.35;;;7.43;;
53875;SDS011;39789;53.216;5.624;2023-07-22T05:21:44;11.75;;;7.72;;
53875;SDS011;39789;53.216;5.624;2023-07-22T05:24:10;10.88;;;7.70;;
53875;SDS011;39789;53.216;5.624;2023-07-22T05:26:36;11.77;;;8.00;;
53875;SDS011;39789;53.216;5.624;2023-07-22T05:29:01;12.18;;;8.13;;
53875;SDS011;39789;53.216;5.624;2023-07-22T05:31:27;13.32;;;8.18;;
53875;SDS011;39789;53.216;5.624;2023-07-22T05:33:52;11.20;;;7.03;;
53875;SDS011;39789;53.216;5.624;2023-07-22T05:36:18;10.93;;;7.15;;
53875;SDS011;39789;53.216;5.624;2023-07-22T05:38:44;13.80;;;7.15;;
53875;SDS011;39789;53.216;5.624;2023-07-22T05:41:09;11.05;;;7.50;;
53875;SDS011;39789;53.216;5.624;2023-07-22T05:43:35;11.02;;;7.03;;
53875;SDS011;39789;53.216;5.624;2023-07-22T05:46:01;10.30;;;7.30;;
53875;SDS011;39789;53.216;5.624;2023-07-22T05:48:27;13.18;;;8.18;;
53875;SDS011;39789;53.216;5.624;2023-07-22T05:50:52;13.80;;;8.73;;
53875;SDS011;39789;53.216;5.624;2023-07-22T05:53:18;12.75;;;7.80;;
53875;SDS011;39789;53.216;5.624;2023-07-22T05:55:44;12.02;;;8.23;;
53875;SDS011;39789;53.216;5.624;2023-07-22T05:58:16;11.93;;;7.57;;
53875;SDS011;39789;53.216;5.624;2023-07-22T06:00:43;14.57;;;9.15;;
53875;SDS011;39789;53.216;5.624;2023-07-22T06:03:08;12.65;;;8.55;;
53875;SDS011;39789;53.216;5.624;2023-07-22T06:05:34;11.45;;;8.15;;
53875;SDS011;39789;53.216;5.624;2023-07-22T06:07:59;11.23;;;8.20;;
53875;SDS011;39789;53.216;5.624;2023-07-22T06:10:25;13.55;;;9.15;;
53875;SDS011;39789;53.216;5.624;2023-07-22T06:12:51;12.73;;;8.77;;
53875;SDS011;39789;53.216;5.624;2023-07-22T06:15:16;15.02;;;9.10;;
53875;SDS011;39789;53.216;5.624;2023-07-22T06:17:45;13.85;;;8.48;;
53875;SDS011;39789;53.216;5.624;2023-07-22T06:20:11;12.07;;;8.15;;
53875;SDS011;39789;53.216;5.624;2023-07-22T06:22:37;13.90;;;9.38;;
53875;SDS011;39789;53.216;5.624;2023-07-22T06:25:03;15.48;;;8.98;;
53875;SDS011;39789;53.216;5.624;2023-07-22T06:27:29;16.17;;;9.82;;
53875;SDS011;39789;53.216;5.624;2023-07-22T06:29:55;15.80;;;9.68;;
53875;SDS011;39789;53.216;5.624;2023-07-22T06:32:21;17.55;;;9.90;;
53875;SDS011;39789;53.216;5.624;2023-07-22T06:34:47;14.32;;;9.60;;
53875;SDS011;39789;53.216;5.624;2023-07-22T06:37:12;16.85;;;10.13;;
53875;SDS011;39789;53.216;5.624;2023-07-22T06:39:38;14.13;;;8.98;;
53875;SDS011;39789;53.216;5.624;2023-07-22T06:42:04;16.35;;;9.50;;
53875;SDS011;39789;53.216;5.624;2023-07-22T06:44:32;17.05;;;10.25;;
53875;SDS011;39789;53.216;5.624;2023-07-22T06:46:58;14.75;;;10.05;;
53875;SDS011;39789;53.216;5.624;2023-07-22T06:49:23;15.75;;;10.00;;
53875;SDS011;39789;53.216;5.624;2023-07-22T06:51:49;14.38;;;9.50;;
53875;SDS011;39789;53.216;5.624;2023-07-22T06:54:15;14.43;;;9.90;;
53875;SDS011;39789;53.216;5.624;2023-07-22T06:56:40;14.45;;;9.07;;
53875;SDS011;39789;53.216;5.624;2023-07-22T06:59:06;14.77;;;9.13;;
53875;SDS011;39789;53.216;5.624;2023-07-22T07:01:32;12.48;;;8.57;;
53875;SDS011;39789;53.216;5.624;2023-07-22T07:03:57;17.50;;;9.00;;
53875;SDS011;39789;53.216;5.624;2023-07-22T07:06:23;11.60;;;8.20;;
53875;SDS011;39789;53.216;5.624;2023-07-22T07:08:48;12.98;;;8.07;;
53875;SDS011;39789;53.216;5.624;2023-07-22T07:11:14;11.15;;;7.50;;
53875;SDS011;39789;53.216;5.624;2023-07-22T07:13:40;14.55;;;8.88;;
53875;SDS011;39789;53.216;5.624;2023-07-22T07:16:22;15.43;;;9.32;;
53875;SDS011;39789;53.216;5.624;2023-07-22T07:18:52;11.45;;;7.25;;
53875;SDS011;39789;53.216;5.624;2023-07-22T07:21:18;15.48;;;9.20;;
53875;SDS011;39789;53.216;5.624;2023-07-22T07:23:44;15.07;;;9.20;;
53875;SDS011;39789;53.216;5.624;2023-07-22T07:26:10;14.35;;;8.55;;
53875;SDS011;39789;53.216;5.624;2023-07-22T07:28:35;16.75;;;9.68;;
53875;SDS011;39789;53.216;5.624;2023-07-22T07:31:01;17.85;;;9.85;;
53875;SDS011;39789;53.216;5.624;2023-07-22T07:33:27;13.50;;;8.48;;
53875;SDS011;39789;53.216;5.624;2023-07-22T07:35:53;14.88;;;9.73;;
53875;SDS011;39789;53.216;5.624;2023-07-22T07:38:19;13.15;;;9.00;;
53875;SDS011;39789;53.216;5.624;2023-07-22T07:40:44;16.10;;;9.63;;
53875;SDS011;39789;53.216;5.624;2023-07-22T07:43:11;13.98;;;8.50;;
53875;SDS011;39789;53.216;5.624;2023-07-22T07:45:38;14.45;;;8.40;;
53875;SDS011;39789;53.216;5.624;2023-07-22T07:48:04;10.23;;;7.68;;
53875;SDS011;39789;53.216;5.624;2023-07-22T07:50:31;12.32;;;8.75;;
53875;SDS011;39789;53.216;5.624;2023-07-22T07:52:57;10.90;;;7.97;;
53875;SDS011;39789;53.216;5.624;2023-07-22T07:55:24;12.07;;;8.57;;
53875;SDS011;39789;53.216;5.624;2023-07-22T07:57:50;10.07;;;7.10;;
53875;SDS011;39789;53.216;5.624;2023-07-22T08:00:16;9.98;;;6.38;;
53875;SDS011;39789;53.216;5.624;2023-07-22T08:02:42;11.80;;;6.55;;
53875;SDS011;39789;53.216;5.624;2023-07-22T08:05:08;11.15;;;6.63;;
53875;SDS011;39789;53.216;5.624;2023-07-22T08:07:34;9.93;;;6.30;;
53875;SDS011;39789;53.216;5.624;2023-07-22T08:10:00;12.43;;;6.15;;
53875;SDS011;39789;53.216;5.624;2023-07-22T08:12:26;7.93;;;5.57;;
53875;SDS011;39789;53.216;5.624;2023-07-22T08:14:52;7.05;;;5.60;;
53875;SDS011;39789;53.216;5.624;2023-07-22T08:17:18;7.07;;;5.40;;
53875;SDS011;39789;53.216;5.624;2023-07-22T08:19:44;7.45;;;4.97;;
53875;SDS011;39789;53.216;5.624;2023-07-22T08:22:09;8.02;;;5.15;;
53875;SDS011;39789;53.216;5.624;2023-07-22T08:24:35;7.28;;;5.10;;
53875;SDS011;39789;53.216;5.624;2023-07-22T08:27:01;6.40;;;3.63;;
53875;SDS011;39789;53.216;5.624;2023-07-22T08:29:27;7.95;;;4.72;;
53875;SDS011;39789;53.216;5.624;2023-07-22T08:31:52;7.22;;;4.93;;
53875;SDS011;39789;53.216;5.624;2023-07-22T08:34:18;11.10;;;5.50;;
53875;SDS011;39789;53.216;5.624;2023-07-22T08:36:43;7.15;;;4.50;;
53875;SDS011;39789;53.216;5.624;2023-07-22T08:39:09;10.13;;;4.82;;
53875;SDS011;39789;53.216;5.624;2023-07-22T08:41:35;7.20;;;4.43;;
53875;SDS011;39789;53.216;5.624;2023-07-22T08:44:01;9.35;;;5.03;;
53875;SDS011;39789;53.216;5.624;2023-07-22T08:46:29;8.45;;;4.22;;
53875;SDS011;39789;53.216;5.624;2023-07-22T08:48:59;7.97;;;4.82;;
53875;SDS011;39789;53.216;5.624;2023-07-22T08:51:25;12.77;;;5.38;;
53875;SDS011;39789;53.216;5.624;2023-07-22T08:53:55;8.82;;;4.68;;
53875;SDS011;39789;53.216;5.624;2023-07-22T08:56:24;10.95;;;5.07;;
53875;SDS011;39789;53.216;5.624;2023-07-22T08:58:53;9.93;;;4.78;;
53875;SDS011;39789;53.216;5.624;2023-07-22T09:01:21;8.38;;;5.35;;
53875;SDS011;39789;53.216;5.624;2023-07-22T09:03:49;5.65;;;4.07;;
53875;SDS011;39789;53.216;5.624;2023-07-22T09:06:21;5.28;;;3.97;;
53875;SDS011;39789;53.216;5.624;2023-07-22T09:08:46;7.50;;;4.25;;
53875;SDS011;39789;53.216;5.624;2023-07-22T09:11:12;6.70;;;4.40;;
53875;SDS011;39789;53.216;5.624;2023-07-22T09:13:39;7.22;;;4.45;;
53875;SDS011;39789;53.216;5.624;2023-07-22T09:16:06;7.50;;;4.55;;
53875;SDS011;39789;53.216;5.624;2023-07-22T09:18:33;7.00;;;4.22;;
53875;SDS011;39789;53.216;5.624;2023-07-22T09:20:59;5.57;;;4.03;;
53875;SDS011;39789;53.216;5.624;2023-07-22T09:23:34;8.00;;;4.25;;
53875;SDS011;39789;53.216;5.624;2023-07-22T09:26:10;6.82;;;4.07;;
53875;SDS011;39789;53.216;5.624;2023-07-22T09:28:53;5.78;;;4.00;;
53875;SDS011;39789;53.216;5.624;2023-07-22T09:31:21;6.85;;;3.95;;
53875;SDS011;39789;53.216;5.624;2023-07-22T09:33:47;7.65;;;4.88;;
53875;SDS011;39789;53.216;5.624;2023-07-22T09:36:14;8.85;;;5.20;;
53875;SDS011;39789;53.216;5.624;2023-07-22T09:38:39;8.45;;;5.50;;
53875;SDS011;39789;53.216;5.624;2023-07-22T09:41:05;7.40;;;4.78;;
53875;SDS011;39789;53.216;5.624;2023-07-22T09:43:31;17.08;;;5.22;;
53875;SDS011;39789;53.216;5.624;2023-07-22T09:46:10;8.32;;;5.15;;
53875;SDS011;39789;53.216;5.624;2023-07-22T09:48:39;6.43;;;4.97;;
53875;SDS011;39789;53.216;5.624;2023-07-22T09:51:16;7.47;;;4.68;;
53875;SDS011;39789;53.216;5.624;2023-07-22T09:53:45;7.03;;;4.50;;
53875;SDS011;39789;53.216;5.624;2023-07-22T09:56:12;6.65;;;4.70;;
53875;SDS011;39789;53.216;5.624;2023-07-22T09:58:38;6.43;;;4.38;;
53875;SDS011;39789;53.216;5.624;2023-07-22T10:01:04;8.80;;;5.35;;
53875;SDS011;39789;53.216;5.624;2023-07-22T10:03:32;6.28;;;4.90;;
53875;SDS011;39789;53.216;5.624;2023-07-22T10:05:59;7.03;;;4.38;;
53875;SDS011;39789;53.216;5.624;2023-07-22T10:08:27;8.25;;;4.70;;
53875;SDS011;39789;53.216;5.624;2023-07-22T10:10:56;9.82;;;5.47;;
53875;SDS011;39789;53.216;5.624;2023-07-22T10:13:24;9.43;;;5.32;;
53875;SDS011;39789;53.216;5.624;2023-07-22T10:15:51;9.63;;;5.55;;
53875;SDS011;39789;53.216;5.624;2023-07-22T10:18:17;9.95;;;6.13;;
53875;SDS011;39789;53.216;5.624;2023-07-22T10:20:45;11.95;;;6.00;;
53875;SDS011;39789;53.216;5.624;2023-07-22T10:23:11;7.45;;;5.70;;
53875;SDS011;39789;53.216;5.624;2023-07-22T10:25:39;11.18;;;6.57;;
53875;SDS011;39789;53.216;5.624;2023-07-22T10:28:05;8.63;;;6.38;;
53875;SDS011;39789;53.216;5.624;2023-07-22T10:30:32;11.07;;;6.05;;
53875;SDS011;39789;53.216;5.624;2023-07-22T10:32:58;7.45;;;5.20;;
53875;SDS011;39789;53.216;5.624;2023-07-22T10:37:56;8.02;;;4.15;;
53875;SDS011;39789;53.216;5.624;2023-07-22T10:43:14;8.90;;;3.88;;
53875;SDS011;39789;53.216;5.624;2023-07-22T10:45:41;7.30;;;4.35;;
53875;SDS011;39789;53.216;5.624;2023-07-22T10:48:11;12.10;;;4.70;;
53875;SDS011;39789;53.216;5.624;2023-07-22T10:50:47;7.00;;;4.88;;
53875;SDS011;39789;53.216;5.624;2023-07-22T10:56:02;6.95;;;5.60;;
53875;SDS011;39789;53.216;5.624;2023-07-22T10:58:32;7.82;;;5.22;;
53875;SDS011;39789;53.216;5.624;2023-07-22T11:01:23;7.28;;;5.63;;
53875;SDS011;39789;53.216;5.624;2023-07-22T11:11:53;8.02;;;6.72;;
53875;SDS011;39789;53.216;5.624;2023-07-22T11:14:22;8.43;;;6.38;;
53875;SDS011;39789;53.216;5.624;2023-07-22T11:16:50;9.48;;;7.18;;
53875;SDS011;39789;53.216;5.624;2023-07-22T11:19:17;8.95;;;7.32;;
53875;SDS011;39789;53.216;5.624;2023-07-22T11:21:45;8.55;;;6.47;;
53875;SDS011;39789;53.216;5.624;2023-07-22T11:24:11;9.30;;;7.28;;
53875;SDS011;39789;53.216;5.624;2023-07-22T11:26:37;8.20;;;7.22;;
53875;SDS011;39789;53.216;5.624;2023-07-22T11:29:04;8.55;;;6.43;;
53875;SDS011;39789;53.216;5.624;2023-07-22T11:31:49;8.55;;;5.93;;
53875;SDS011;39789;53.216;5.624;2023-07-22T11:34:17;8.57;;;7.68;;
53875;SDS011;39789;53.216;5.624;2023-07-22T11:36:47;7.70;;;6.22;;
53875;SDS011;39789;53.216;5.624;2023-07-22T11:39:15;8.05;;;7.25;;
53875;SDS011;39789;53.216;5.624;2023-07-22T11:41:43;9.07;;;7.55;;
53875;SDS011;39789;53.216;5.624;2023-07-22T11:44:10;7.95;;;6.93;;
53875;SDS011;39789;53.216;5.624;2023-07-22T11:46:46;10.07;;;7.53;;
53875;SDS011;39789;53.216;5.624;2023-07-22T11:49:12;10.52;;;7.28;;
53875;SDS011;39789;53.216;5.624;2023-07-22T11:51:41;11.20;;;6.95;;
53875;SDS011;39789;53.216;5.624;2023-07-22T11:54:07;9.00;;;7.00;;
53875;SDS011;39789;53.216;5.624;2023-07-22T11:56:33;9.45;;;6.88;;
53875;SDS011;39789;53.216;5.624;2023-07-22T11:58:59;8.95;;;6.85;;
53875;SDS011;39789;53.216;5.624;2023-07-22T12:01:28;8.23;;;7.38;;
53875;SDS011;39789;53.216;5.624;2023-07-22T12:03:58;9.43;;;6.85;;
53875;SDS011;39789;53.216;5.624;2023-07-22T12:06:26;8.85;;;6.88;;
53875;SDS011;39789;53.216;5.624;2023-07-22T12:08:53;10.63;;;4.95;;
53875;SDS011;39789;53.216;5.624;2023-07-22T12:11:23;5.88;;;4.55;;
53875;SDS011;39789;53.216;5.624;2023-07-22T12:16:36;10.45;;;5.40;;
53875;SDS011;39789;53.216;5.624;2023-07-22T12:19:03;13.02;;;5.32;;
53875;SDS011;39789;53.216;5.624;2023-07-22T12:21:29;5.88;;;2.28;;
53875;SDS011;39789;53.216;5.624;2023-07-22T12:23:55;5.03;;;3.03;;
53875;SDS011;39789;53.216;5.624;2023-07-22T12:26:20;6.90;;;3.60;;
53875;SDS011;39789;53.216;5.624;2023-07-22T12:28:46;5.97;;;3.13;;
53875;SDS011;39789;53.216;5.624;2023-07-22T12:31:12;9.00;;;3.05;;
53875;SDS011;39789;53.216;5.624;2023-07-22T12:33:37;6.57;;;3.13;;
53875;SDS011;39789;53.216;5.624;2023-07-22T12:36:03;8.65;;;3.50;;
53875;SDS011;39789;53.216;5.624;2023-07-22T12:38:30;7.00;;;3.08;;
53875;SDS011;39789;53.216;5.624;2023-07-22T12:40:56;6.88;;;3.13;;
53875;SDS011;39789;53.216;5.624;2023-07-22T12:43:21;6.22;;;2.85;;
53875;SDS011;39789;53.216;5.624;2023-07-22T12:45:47;4.10;;;2.70;;
53875;SDS011;39789;53.216;5.624;2023-07-22T12:48:13;10.93;;;3.97;;
53875;SDS011;39789;53.216;5.624;2023-07-22T12:50:38;4.43;;;2.42;;
53875;SDS011;39789;53.216;5.624;2023-07-22T12:53:04;5.85;;;2.88;;
53875;SDS011;39789;53.216;5.624;2023-07-22T12:55:29;5.90;;;3.10;;
53875;SDS011;39789;53.216;5.624;2023-07-22T12:57:55;6.03;;;2.65;;
53875;SDS011;39789;53.216;5.624;2023-07-22T13:00:21;4.10;;;3.15;;
53875;SDS011;39789;53.216;5.624;2023-07-22T13:02:47;5.93;;;2.90;;
53875;SDS011;39789;53.216;5.624;2023-07-22T13:05:13;5.10;;;3.17;;
53875;SDS011;39789;53.216;5.624;2023-07-22T13:07:38;5.18;;;3.40;;
53875;SDS011;39789;53.216;5.624;2023-07-22T13:10:05;6.40;;;3.40;;
53875;SDS011;39789;53.216;5.624;2023-07-22T13:12:35;5.45;;;3.22;;
53875;SDS011;39789;53.216;5.624;2023-07-22T13:15:02;6.70;;;3.08;;
53875;SDS011;39789;53.216;5.624;2023-07-22T13:17:28;6.25;;;3.42;;
53875;SDS011;39789;53.216;5.624;2023-07-22T13:19:53;8.13;;;4.00;;
53875;SDS011;39789;53.216;5.624;2023-07-22T13:22:19;6.88;;;3.90;;
53875;SDS011;39789;53.216;5.624;2023-07-22T13:24:44;7.20;;;3.45;;
53875;SDS011;39789;53.216;5.624;2023-07-22T13:27:10;7.43;;;4.18;;
53875;SDS011;39789;53.216;5.624;2023-07-22T13:29:36;7.47;;;4.18;;
53875;SDS011;39789;53.216;5.624;2023-07-22T13:32:01;9.98;;;3.58;;
53875;SDS011;39789;53.216;5.624;2023-07-22T13:34:29;7.95;;;3.88;;
53875;SDS011;39789;53.216;5.624;2023-07-22T13:36:54;9.55;;;4.10;;
53875;SDS011;39789;53.216;5.624;2023-07-22T13:39:20;14.02;;;5.28;;
53875;SDS011;39789;53.216;5.624;2023-07-22T13:41:46;12.45;;;4.60;;
53875;SDS011;39789;53.216;5.624;2023-07-22T13:44:12;12.63;;;4.88;;
53875;SDS011;39789;53.216;5.624;2023-07-22T13:46:38;17.13;;;4.95;;
53875;SDS011;39789;53.216;5.624;2023-07-22T13:49:03;8.70;;;4.43;;
53875;SDS011;39789;53.216;5.624;2023-07-22T13:51:29;13.32;;;5.15;;
53875;SDS011;39789;53.216;5.624;2023-07-22T13:53:54;9.85;;;4.80;;
53875;SDS011;39789;53.216;5.624;2023-07-22T13:56:20;12.25;;;5.18;;
53875;SDS011;39789;53.216;5.624;2023-07-22T13:58:46;10.93;;;4.78;;
53875;SDS011;39789;53.216;5.624;2023-07-22T14:01:12;10.18;;;5.35;;
53875;SDS011;39789;53.216;5.624;2023-07-22T14:03:38;7.80;;;4.93;;
53875;SDS011;39789;53.216;5.624;2023-07-22T14:06:04;10.63;;;5.15;;
53875;SDS011;39789;53.216;5.624;2023-07-22T14:08:29;12.07;;;5.20;;
53875;SDS011;39789;53.216;5.624;2023-07-22T14:10:55;10.70;;;4.95;;
53875;SDS011;39789;53.216;5.624;2023-07-22T14:13:21;9.07;;;4.97;;
53875;SDS011;39789;53.216;5.624;2023-07-22T14:15:46;8.95;;;5.45;;
53875;SDS011;39789;53.216;5.624;2023-07-22T14:18:12;12.07;;;5.45;;
53875;SDS011;39789;53.216;5.624;2023-07-22T14:20:42;9.60;;;4.88;;
53875;SDS011;39789;53.216;5.624;2023-07-22T14:23:08;8.95;;;4.70;;
53875;SDS011;39789;53.216;5.624;2023-07-22T14:25:33;9.32;;;4.68;;
53875;SDS011;39789;53.216;5.624;2023-07-22T14:27:59;10.93;;;5.00;;
53875;SDS011;39789;53.216;5.624;2023-07-22T14:30:24;9.35;;;4.75;;
53875;SDS011;39789;53.216;5.624;2023-07-22T14:32:50;11.50;;;4.35;;
53875;SDS011;39789;53.216;5.624;2023-07-22T14:35:16;7.35;;;4.35;;
53875;SDS011;39789;53.216;5.624;2023-07-22T14:37:41;16.08;;;4.28;;
53875;SDS011;39789;53.216;5.624;2023-07-22T14:40:07;10.38;;;3.42;;
53875;SDS011;39789;53.216;5.624;2023-07-22T14:42:36;10.18;;;3.20;;
53875;SDS011;39789;53.216;5.624;2023-07-22T14:45:01;4.43;;;2.85;;
53875;SDS011;39789;53.216;5.624;2023-07-22T14:47:27;7.22;;;3.53;;
53875;SDS011;39789;53.216;5.624;2023-07-22T14:49:53;7.28;;;2.90;;
53875;SDS011;39789;53.216;5.624;2023-07-22T14:52:19;11.50;;;3.45;;
53875;SDS011;39789;53.216;5.624;2023-07-22T14:54:44;6.88;;;3.40;;
53875;SDS011;39789;53.216;5.624;2023-07-22T14:57:10;8.60;;;3.88;;
53875;SDS011;39789;53.216;5.624;2023-07-22T14:59:36;7.35;;;3.28;;
53875;SDS011;39789;53.216;5.624;2023-07-22T15:02:01;9.27;;;3.08;;
53875;SDS011;39789;53.216;5.624;2023-07-22T15:04:27;7.85;;;3.40;;
53875;SDS011;39789;53.216;5.624;2023-07-22T15:06:53;6.15;;;3.10;;
53875;SDS011;39789;53.216;5.624;2023-07-22T15:09:18;5.82;;;3.33;;
53875;SDS011;39789;53.216;5.624;2023-07-22T15:11:45;6.55;;;3.28;;
53875;SDS011;39789;53.216;5.624;2023-07-22T15:14:11;9.35;;;3.42;;
53875;SDS011;39789;53.216;5.624;2023-07-22T15:16:36;8.05;;;3.70;;
53875;SDS011;39789;53.216;5.624;2023-07-22T15:19:06;10.20;;;3.47;;
53875;SDS011;39789;53.216;5.624;2023-07-22T15:21:32;7.63;;;3.42;;
53875;SDS011;39789;53.216;5.624;2023-07-22T15:23:58;7.03;;;3.47;;
53875;SDS011;39789;53.216;5.624;2023-07-22T15:26:23;9.02;;;4.78;;
53875;SDS011;39789;53.216;5.624;2023-07-22T15:28:49;9.75;;;3.83;;
53875;SDS011;39789;53.216;5.624;2023-07-22T15:31:18;8.93;;;4.45;;